• Join FlightAware (Why Join?)
  • Login
  • US Flag 
06:15AM EDT


 

Airport Tracker/Info


-or-


 

Live Flight TrackerFlight Track Log ✈ BWA78 ✈ 26-May-2013 ✈ CYYZ - MKJP / KIN

Flight Track Log - Related Links

Times and Time Zones

All times are in EDT time to prevent confusion due to time zone crossing. See the BWA78 flight status page for this flight to view local times or setup timezone preferences in your user account.

Time Position Orientation Groundspeed Altitude Reporting Facility
EDT Latitude Longitude Course Direction KTS MPH feet Rate Location/Type
05:14PM 43.6833 -79.5667 185° South 160 184 1,900  Level Toronto Center
05:15PM 43.7167 -79.5000 55° Northeast 210 242 3,800 2,040 Climbing Toronto Center
05:16PM 43.7167 -79.4333 90° East 270 311 6,000 2,400 Climbing Toronto Center
05:17PM 43.6500 -79.3833 152° Southeast 300 345 8,700 2,400 Climbing Toronto Center
05:18PM 43.5667 -79.4500 210° Southwest 320 368 10,800 2,220 Climbing Toronto Center
05:19PM 43.4833 -79.5167 210° Southwest 360 414 13,200 2,520 Climbing Toronto Center
05:20PM 42.6803 -79.8129 185° South  Level FlightAware Approximate
05:20PM 43.3833 -79.5333 187° South 380 437 15,900  Level Toronto Center
05:21PM 43.2833 -79.5667 194° South 390 449 18,500 2,460 Climbing Toronto Center
05:22PM 43.1667 -79.5833 186° South 410 472 20,900 2,160 Climbing Toronto Center
05:23PM 43.0500 -79.6333 197° South 420 483 22,900 1,980 Climbing Toronto Center
05:24PM 42.9333 -79.6500 186° South 430 495 24,900 1,800 Climbing Toronto Center
05:25PM 42.8000 -79.7000 195° South 450 518 26,500 1,620 Climbing Toronto Center
05:25PM 42.7572 -79.7292 207° Southwest 450 518 27,400 1,560 Climbing Cleveland Center
05:26PM 42.6261 -79.7592 190° South 464 534 28,900 1,320 Climbing Cleveland Center
05:27PM 42.4931 -79.7975 192° South 476 548 30,100 1,080 Climbing Cleveland Center
05:28PM 42.3681 -79.8272 190° South 498 573 31,100 1,200 Climbing Cleveland Center
05:29PM 42.2308 -79.8625 191° South 503 579 32,500 1,200 Climbing Cleveland Center
05:30PM 42.0892 -79.9006 191° South 508 585 33,600 1,020 Climbing Cleveland Center
05:31PM 41.9497 -79.9356 191° South 508 585 34,600 1,020 Climbing Cleveland Center
05:32PM 41.7958 -79.9733 190° South 522 601 35,700 660 Climbing Cleveland Center
05:33PM 41.6667 -80.0050 190° South 522 601 36,000 120 Climbing Cleveland Center
05:34PM 41.5314 -80.0367 190° South 516 594 36,000  Level Cleveland Center
05:35PM 41.3919 -80.0711 190° South 511 588 36,000  Level Cleveland Center
05:36PM 41.2544 -80.1053 191° South 511 588 36,000  Level Cleveland Center
05:37PM 41.1150 -80.1394 190° South 511 588 36,000  Level Cleveland Center
05:38PM 40.9753 -80.1761 191° South 511 588 36,000  Level Cleveland Center
05:39PM 40.8150 -80.2128 190° South 518 596 36,000  Level Cleveland Center
05:40PM 40.6669 -80.2025 177° South 529 609 36,000  Level Cleveland Center
05:41PM 40.5208 -80.1925 177° South 534 615 36,000  Level Cleveland Center
05:42PM 40.3708 -80.1825 177° South 534 615 36,000  Level Cleveland Center
05:43PM 40.2250 -80.1725 177° South 534 615 36,000  Level Cleveland Center
05:44PM 40.0811 -80.1625 177° South 529 609 36,000  Level Cleveland Center
05:45PM 39.9414 -80.1797 185° South 523 602 36,000  Level Cleveland Center
05:46PM 39.7997 -80.2022 187° South 516 594 36,000  Level Cleveland Center
05:47PM 39.6581 -80.2244 187° South 516 594 36,000 540 Level Cleveland Center
05:48PM 39.5164 -80.2439 186° South 516 594 37,100 840 Climbing Cleveland Center
05:49PM 39.4672 -80.2506 186° South 515 593 37,300 -120 Climbing Washington Center
05:50PM 39.3247 -80.2708 186° South 506 582 37,000 -180 Descending Washington Center
05:51PM 39.1864 -80.2889 186° South 506 582 37,000  Level Washington Center
05:52PM 39.0461 -80.3092 186° South 506 582 37,000  Level Washington Center
05:53PM 38.9078 -80.3269 186° South 506 582 37,000 360 Level Washington Center
05:54PM 38.7650 -80.3469 186° South 506 582 37,800 480 Climbing Washington Center
05:55PM 38.6094 -80.3794 189° South 511 588 38,000 60 Climbing Washington Center
05:56PM 38.4692 -80.3969 186° South 511 588 38,000  Level Washington Center
05:57PM 38.3411 -80.4153 186° South 517 595 38,000  Level Washington Center
05:58PM 38.2008 -80.4325 186° South 517 595 38,000  Level Washington Center
05:59PM 38.0622 -80.4525 186° South 517 595 38,000  Level Washington Center
06:00PM 37.9092 -80.4742 186° South 517 595 38,000  Level Washington Center
06:01PM 37.7686 -80.4942 186° South 512 589 38,000  Level Washington Center
06:02PM 37.5528 -80.5211 186° South 520 598 38,000  Level Atlanta Center
06:03PM 37.4136 -80.5378 185° South 515 593 38,000  Level Atlanta Center
06:04PM 37.2622 -80.5578 186° South 509 586 38,000  Level Atlanta Center
06:05PM 37.1250 -80.5767 186° South 504 580 38,000  Level Atlanta Center
06:06PM 36.9922 -80.5931 186° South 498 573 38,000  Level Atlanta Center
06:07PM 36.8528 -80.6094 185° South 498 573 38,000  Level Atlanta Center
06:08PM 36.7178 -80.6256 185° South 491 565 38,000  Level Atlanta Center
06:09PM 36.5847 -80.6417 186° South 484 557 38,000  Level Atlanta Center
06:10PM 36.4478 -80.6628 187° South 492 566 38,000  Level Atlanta Center
06:11PM 36.3128 -80.6814 186° South 497 572 38,000  Level Atlanta Center
06:12PM 36.1756 -80.6975 185° South 497 572 38,000  Level Atlanta Center
06:13PM 36.0361 -80.7161 186° South 504 580 38,000  Level Atlanta Center
06:14PM 35.8992 -80.7344 186° South 499 574 38,000  Level Atlanta Center
06:15PM 35.7764 -80.7497 186° South 499 574 38,000  Level Atlanta Center
06:16PM 35.6392 -80.7681 186° South 499 574 38,000  Level Atlanta Center
06:17PM 35.5019 -80.7861 186° South 499 574 38,000  Level Atlanta Center
06:18PM 35.3522 -80.8047 186° South 499 574 38,000  Level Atlanta Center
06:21PM 35.0381 -80.8467 186° South 498 573 38,000  Level Jacksonville Center
06:22PM 34.9069 -80.8675 187° South 486 559 38,000  Level Jacksonville Center
06:23PM 34.7758 -80.8833 186° South 477 549 38,000  Level Jacksonville Center
06:24PM 34.6447 -80.8989 186° South 483 556 38,000  Level Jacksonville Center
06:25PM 34.5136 -80.9094 184° South 473 544 38,000  Level Jacksonville Center
06:26PM 34.3717 -80.9178 183° South 474 545 38,000  Level Jacksonville Center
06:27PM 34.2611 -80.9203 181° South 467 537 38,000  Level Jacksonville Center
06:28PM 34.1342 -80.9281 183° South 456 525 38,000  Level Jacksonville Center
06:29PM 34.0047 -80.9311 181° South 456 525 38,000  Level Jacksonville Center
06:30PM 33.8775 -80.9364 182° South 462 532 38,000 -60 Level Jacksonville Center
06:31PM 33.7461 -80.9419 182° South 462 532 37,900  Descending Jacksonville Center
06:32PM 33.6169 -80.9472 182° South 462 532 38,000  Climbing Jacksonville Center
06:33PM 33.4917 -80.9525 182° South 462 532 37,900 -60 Descending Jacksonville Center
06:34PM 33.3625 -80.9603 183° South 462 532 37,900  Level Jacksonville Center
06:35PM 33.2186 -80.9633 181° South 462 532 38,000  Climbing Jacksonville Center
06:36PM 33.0892 -80.9686 182° South 462 532 38,000  Level Jacksonville Center
06:37PM 32.9642 -80.9739 182° South 457 526 38,000  Level Jacksonville Center
06:38PM 32.8347 -80.9767 181° South 457 526 38,000  Level Jacksonville Center
06:39PM 32.7075 -80.9842 183° South 457 526 38,000  Level Jacksonville Center
06:40PM 32.5803 -80.9869 181° South 452 520 38,000  Level Jacksonville Center
06:41PM 32.4486 -80.9919 182° South 462 532 38,000  Level Jacksonville Center
06:42PM 32.3278 -80.9944 181° South 452 520 38,000  Level Jacksonville Center
06:43PM 32.2003 -80.9997 182° South 459 528 38,000  Level Jacksonville Center
06:44PM 32.0814 -81.0022 181° South 464 534 38,000  Level Jacksonville Center
06:45PM 31.9375 -81.0075 182° South 475 547 38,000  Level Jacksonville Center
06:46PM 31.8061 -81.0150 183° South 475 547 38,000  Level Jacksonville Center
06:47PM 31.6914 -81.0200 182° South 470 541 38,000  Level Jacksonville Center
06:48PM 31.5492 -81.0106 177° South 459 528 38,000  Level Jacksonville Center
06:49PM 31.4194 -80.9911 173° South 464 534 38,000  Level Jacksonville Center
06:50PM 31.3022 -80.9792 175° South 469 540 38,000  Level Jacksonville Center
06:51PM 31.1725 -80.9597 173° South 469 540 38,000  Level Jacksonville Center
06:52PM 31.0450 -80.9431 174° South 469 540 38,000  Level Jacksonville Center
06:53PM 30.9172 -80.9214 172° South 469 540 38,000  Level Jacksonville Center
06:54PM 30.7894 -80.8856 166° South 469 540 38,000  Level Jacksonville Center
06:55PM 30.6614 -80.8494 166° South 469 540 38,000  Level Jacksonville Center
06:56PM 30.5336 -80.8136 166° South 469 540 38,000  Level Jacksonville Center
06:58PM 30.2175 -80.7197 166° South 469 540 38,000  Level Miami Center
06:59PM 30.0911 -80.6864 167° South 469 540 38,000 -60 Level Miami Center
07:00PM 29.9631 -80.6483 166° South 469 540 37,900  Descending Miami Center
07:01PM 29.8347 -80.6128 166° South 469 540 38,000  Climbing Miami Center
07:02PM 29.7125 -80.5775 166° South 469 540 37,900  Descending Miami Center
07:03PM 29.5883 -80.5447 167° South 469 540 38,000  Climbing Miami Center
07:04PM 29.4600 -80.5094 167° South 469 540 37,900  Descending Miami Center
07:05PM 29.3378 -80.4792 168° South 469 540 38,000  Climbing Miami Center
07:06PM 29.2136 -80.4442 166° South 469 540 38,000  Level Miami Center
07:07PM 29.0872 -80.4114 167° South 469 540 38,000  Level Miami Center
07:08PM 28.9628 -80.3742 165° South 469 540 38,000  Level Miami Center
07:09PM 28.8406 -80.3397 166° South 463 533 38,000  Level Miami Center
07:10PM 28.7244 -80.3100 167° South 473 544 38,000  Level Miami Center
07:11PM 28.6003 -80.2753 166° South 467 537 38,000  Level Miami Center
07:12PM 28.4614 -80.2358 166° South 467 537 38,000  Level Miami Center
07:13PM 28.3347 -80.2011 166° South 467 537 38,000  Level Miami Center
07:14PM 28.2083 -80.1669 167° South 472 543 38,000  Level Miami Center
07:15PM 28.0964 -80.1353 166° South 465 535 38,000  Level Miami Center
07:16PM 27.9697 -80.1036 168° South 470 541 38,000  Level Miami Center
07:17PM 27.8411 -80.0692 167° South 470 541 38,000  Level Miami Center
07:18PM 27.7144 -80.0353 167° South 475 547 38,000  Level Miami Center
07:19PM 27.5900 -80.0014 166° South 467 537 38,000  Level Miami Center
07:20PM 27.4653 -79.9675 166° South 467 537 38,000  Level Miami Center
07:21PM 27.3408 -79.9361 167° South 467 537 38,000  Level Miami Center
07:22PM 27.2119 -79.9047 168° South 467 537 38,000  Level Miami Center
07:23PM 27.0792 -79.8639 165° South 458 527 38,000  Level Miami Center
07:24PM 26.9567 -79.8303 166° South 450 518 38,000  Level Miami Center
07:25PM 26.8422 -79.8019 168° South 455 524 38,000  Level Miami Center
07:26PM 26.7053 -79.7658 167° South 460 529 38,000  Level Miami Center
07:27PM 26.5806 -79.7350 168° South 465 535 38,000 300 Level Miami Center
07:28PM 26.4539 -79.6994 166° South 465 535 38,700 480 Climbing Miami Center
07:29PM 26.3394 -79.6686 166° South 470 541 39,000 60 Climbing Miami Center
07:30PM 26.2128 -79.6356 167° South 470 541 38,900  Descending Miami Center
07:31PM 26.0881 -79.6050 168° South 470 541 39,000  Climbing Miami Center
07:32PM 25.9611 -79.5719 167° South 470 541 39,000  Level Miami Center
07:33PM 25.8344 -79.5392 167° South 470 541 39,000 -60 Level Miami Center
07:34PM 25.7094 -79.5064 167° South 470 541 38,900  Descending Miami Center
07:35PM 25.5869 -79.4761 167° South 463 533 39,000  Climbing Miami Center
07:36PM 25.4622 -79.4411 166° South 463 533 38,900 -60 Descending Miami Center
07:37PM 25.3394 -79.4086 167° South 463 533 38,900  Level Miami Center
07:38PM 25.2186 -79.3786 167° South 463 533 39,000  Climbing Miami Center
07:39PM 25.0897 -79.3531 170° South 463 533 39,000  Level Miami Center
07:40PM 24.9664 -79.3506 179° South 463 533 39,000 -60 Level Miami Center
07:41PM 24.8367 -79.3525 181° South 463 533 38,900  Descending Miami Center
07:42PM 24.7114 -79.3522 180° South 458 527 39,000  Climbing Miami Center
07:43PM 24.5908 -79.3111 163° South 458 527 38,900 -60 Descending Miami Center
07:44PM 24.4683 -79.2606 159° South 457 526 38,900  Level Miami Center
07:45PM 24.3333 -79.2103 161° South 464 534 39,000  Climbing Miami Center
07:46PM 24.2028 -79.1553 159° South 477 549 39,000  Level Miami Center
07:47PM 24.0842 -79.1075 160° South 471 542 39,000  Level Miami Center
07:48PM 23.9617 -79.0600 160° South 473 544 39,000  Level Miami Center
07:50PM 23.8145 -79.0017 160° South  Level FlightAware Approximate
07:57PM 22.9776 -78.6772 162° South  Level FlightAware Approximate
07:58PM 22.8572 -78.6339 162° South  Level FlightAware Approximate
07:59PM 22.7367 -78.5907 162° South  Level FlightAware Approximate
08:00PM 22.6162 -78.5475 162° South  Level FlightAware Approximate
08:01PM 22.4957 -78.5044 162° South  Level FlightAware Approximate
08:02PM 22.3761 -78.4587 160° South  Level FlightAware Approximate
08:03PM 22.2565 -78.4128 160° South  Level FlightAware Approximate
08:04PM 22.1370 -78.3668 160° South  Level FlightAware Approximate
08:05PM 22.0173 -78.3212 161° South  Level FlightAware Approximate
08:06PM 21.8973 -78.2768 161° South  Level FlightAware Approximate
08:07PM 21.7773 -78.2325 161° South  Level FlightAware Approximate
08:08PM 21.6572 -78.1882 161° South  Level FlightAware Approximate
08:09PM 21.5372 -78.1440 161° South  Level FlightAware Approximate
08:10PM 21.4171 -78.0998 161° South  Level FlightAware Approximate
08:11PM 21.2971 -78.0558 161° South  Level FlightAware Approximate
08:12PM 21.1770 -78.0118 161° South  Level FlightAware Approximate
08:13PM 21.0569 -77.9679 161° South  Level FlightAware Approximate
08:14PM 20.9368 -77.9240 161° South  Level FlightAware Approximate
08:15PM 20.8166 -77.8802 161° South  Level FlightAware Approximate
08:16PM 20.6965 -77.8365 161° South  Level FlightAware Approximate
08:17PM 20.5764 -77.7929 161° South  Level FlightAware Approximate
08:18PM 20.4567 -77.7477 160° South  Level FlightAware Approximate
08:19PM 20.3372 -77.7022 160° South  Level FlightAware Approximate
08:20PM 20.2177 -77.6567 160° South  Level FlightAware Approximate
08:21PM 20.0972 -77.6143 162° South  Level FlightAware Approximate
08:22PM 19.9766 -77.5725 162° South  Level FlightAware Approximate
08:23PM 19.8559 -77.5308 162° South  Level FlightAware Approximate
08:24PM 19.7368 -77.4850 155° Southeast  Level FlightAware Approximate
08:25PM 19.6187 -77.4361 161° South  Level FlightAware Approximate
08:26PM 19.4974 -77.3969 165° South  Level FlightAware Approximate
08:27PM 19.3780 -77.3522 160° South  Level FlightAware Approximate
08:28PM 19.2584 -77.3073 160° South  Level FlightAware Approximate
08:29PM 19.1387 -77.2628 162° South  Level FlightAware Approximate
08:30PM 19.0181 -77.2211 162° South  Level FlightAware Approximate
08:31PM 18.8975 -77.1795 162° South  Level FlightAware Approximate
08:32PM 18.7768 -77.1379 162° South  Level FlightAware Approximate
08:33PM 18.6560 -77.0968 164° South  Level FlightAware Approximate
08:34PM 18.5340 -77.0602 164° South  Level FlightAware Approximate
08:35PM 18.4173 -77.0086 155° Southeast  Level FlightAware Approximate
08:36PM 18.3026 -76.9513 155° Southeast  Level FlightAware Approximate
08:37PM 18.1858 -76.8992 157° South  Level FlightAware Approximate
08:38PM 18.0716 -76.8453 159° South  Level FlightAware Approximate
08:39PM 17.9563 -76.7904 150° Southeast  Level FlightAware Approximate
08:40PM 17.9357 -76.7875 150° Southeast  Level Estimated
08:41PM 17.9357 -76.7875 150° Southeast  Level Estimated
08:42PM 17.9357 -76.7875 150° Southeast  Level Estimated
08:43PM 17.9357 -76.7875 150° Southeast  Level Estimated
08:44PM 17.9357 -76.7875 150° Southeast  Level Estimated
08:45PM 17.9357 -76.7875 150° Southeast  Level Estimated
08:46PM 17.9357 -76.7875 150° Southeast  Level Estimated
08:47PM 17.9357 -76.7875 150° Southeast  Level Estimated
08:48PM 17.9357 -76.7875 150° Southeast  Level Estimated
08:49PM 17.9357 -76.7875 150° Southeast  Level Estimated
08:50PM 17.9357 -76.7875 150° Southeast  Level Estimated
08:51PM 17.9357 -76.7875 150° Southeast  Level Estimated
08:52PM 17.9357 -76.7875 150° Southeast  Level Estimated
08:53PM 17.9357 -76.7875 150° Southeast  Level Estimated
08:54PM 17.9357 -76.7875 150° Southeast  Level Estimated
08:55PM 17.9357 -76.7875 150° Southeast  Level Estimated
08:56PM 17.9357 -76.7875 150° Southeast  Level Estimated
08:57PM 17.9357 -76.7875 150° Southeast  Level Estimated
08:58PM 17.9357 -76.7875 150° Southeast  Level Estimated
08:59PM 17.9357 -76.7875 150° Southeast  Level Estimated
09:00PM 17.9357 -76.7875 150° Southeast  Level Estimated